createdAt,value
2023-02-28T00:00:21.217Z,95424.69
2023-02-28T00:02:48.189Z,95438.50
2023-02-28T00:05:17.387Z,95439.94
2023-02-28T00:07:44.447Z,95437.63
2023-02-28T00:10:14.348Z,95435.59
2023-02-28T00:12:41.570Z,95425.63
2023-02-28T00:15:11.936Z,95467.47
2023-02-28T00:17:38.913Z,95464.78
2023-02-28T00:20:11.046Z,95461.44
2023-02-28T00:22:39.518Z,95465.78
2023-02-28T00:25:08.016Z,95445.75
2023-02-28T00:27:36.129Z,95442.88
2023-02-28T00:30:02.856Z,95445.69
2023-02-28T00:32:29.503Z,95471.84
2023-02-28T00:34:56.389Z,95485.56
2023-02-28T00:37:23.018Z,95474.22
2023-02-28T00:39:49.737Z,95479.28
2023-02-28T00:42:16.807Z,95479.13
2023-02-28T00:44:43.538Z,95483.00
2023-02-28T00:47:10.181Z,95479.84
2023-02-28T00:49:37.077Z,95455.75
2023-02-28T00:52:03.875Z,95472.63
2023-02-28T00:54:30.571Z,95471.19
2023-02-28T00:56:57.190Z,95458.19
2023-02-28T00:59:23.860Z,95453.03
2023-02-28T01:01:50.564Z,95457.16
2023-02-28T01:04:17.381Z,95467.97
2023-02-28T01:06:44.509Z,95460.28
2023-02-28T01:09:11.719Z,95458.09
2023-02-28T01:11:38.478Z,95459.97
2023-02-28T01:14:05.284Z,95447.31
2023-02-28T01:16:31.994Z,95467.22
2023-02-28T01:18:59.053Z,95447.22
2023-02-28T01:21:25.768Z,95445.69
2023-02-28T01:23:52.522Z,95464.00
2023-02-28T01:26:22.521Z,95433.22
2023-02-28T01:28:50.670Z,95456.66
2023-02-28T01:31:19.219Z,95474.34
2023-02-28T01:33:46.653Z,95468.44
2023-02-28T01:36:17.930Z,95464.25
2023-02-28T01:38:45.078Z,95460.72
2023-02-28T01:41:21.133Z,95461.44
2023-02-28T01:43:47.644Z,95463.66
2023-02-28T01:46:15.408Z,95454.44
2023-02-28T01:48:49.136Z,95466.50
2023-02-28T01:51:23.942Z,95465.31
2023-02-28T01:53:55.285Z,95465.94
2023-02-28T01:56:27.297Z,95453.78
2023-02-28T01:58:55.187Z,95463.13
2023-02-28T02:01:23.546Z,95456.25
2023-02-28T02:03:56.367Z,95467.41
2023-02-28T02:06:30.259Z,95454.28
2023-02-28T02:08:57.101Z,95468.06
2023-02-28T02:11:26.423Z,95450.94
2023-02-28T02:14:05.176Z,95464.22
2023-02-28T02:16:34.436Z,95451.56
2023-02-28T02:19:19.796Z,95451.63
2023-02-28T02:22:20.560Z,95460.72
2023-02-28T02:25:05.911Z,95457.84
2023-02-28T02:28:05.962Z,95454.03
2023-02-28T02:30:32.502Z,95455.59
2023-02-28T02:33:45.611Z,95446.78
2023-02-28T02:36:21.138Z,95451.09
2023-02-28T02:39:03.369Z,95425.13
2023-02-28T02:41:59.250Z,95434.53
2023-02-28T02:44:32.571Z,95463.09
2023-02-28T02:47:05.772Z,95465.78
2023-02-28T02:49:34.276Z,95386.88
2023-02-28T02:52:06.593Z,95454.09
2023-02-28T02:54:36.402Z,95467.28
2023-02-28T02:57:10.153Z,95459.63
2023-02-28T02:59:38.752Z,95464.88
2023-02-28T03:02:09.714Z,95448.31
2023-02-28T03:04:43.488Z,95462.38
2023-02-28T03:07:10.491Z,95473.78
2023-02-28T03:09:37.096Z,95459.72
2023-02-28T03:12:04.953Z,95459.69
2023-02-28T03:14:55.505Z,95454.72
2023-02-28T03:17:31.969Z,95464.25
2023-02-28T03:20:08.420Z,95460.78
2023-02-28T03:22:53.534Z,95505.13
2023-02-28T03:25:38.727Z,95499.78
2023-02-28T03:28:38.085Z,95506.69
2023-02-28T03:31:21.939Z,95494.50
2023-02-28T03:33:56.227Z,95470.00
2023-02-28T03:36:30.120Z,95514.94
2023-02-28T03:39:03.682Z,95513.06
2023-02-28T03:41:53.625Z,95514.00
2023-02-28T03:44:30.051Z,95512.91
2023-02-28T03:47:06.031Z,95511.25
2023-02-28T03:49:48.844Z,95516.13
2023-02-28T03:52:15.668Z,95505.50
2023-02-28T03:54:49.358Z,95500.00
2023-02-28T03:57:44.577Z,95518.47
2023-02-28T04:00:16.738Z,95521.22
2023-02-28T04:02:43.395Z,95496.97
2023-02-28T04:05:10.072Z,95538.31
2023-02-28T04:07:36.816Z,95504.72
2023-02-28T04:10:04.851Z,95519.22
2023-02-28T04:12:31.473Z,95494.00
2023-02-28T04:14:58.059Z,95520.31
2023-02-28T04:17:24.653Z,95527.81
2023-02-28T04:19:51.336Z,95531.97
2023-02-28T04:22:18.872Z,95529.28
2023-02-28T04:24:45.956Z,95512.19
2023-02-28T04:27:12.578Z,95519.75
2023-02-28T04:29:39.257Z,95527.00
2023-02-28T04:32:06.233Z,95526.69
2023-02-28T04:34:33.901Z,95516.28
2023-02-28T04:37:17.038Z,95529.69
2023-02-28T04:39:44.721Z,95515.34
2023-02-28T04:42:12.849Z,95481.31
2023-02-28T04:44:39.392Z,95535.31
2023-02-28T04:47:06.256Z,95531.59
2023-02-28T04:49:33.386Z,95526.16
2023-02-28T04:51:59.972Z,95525.34
2023-02-28T04:54:26.699Z,95533.09
2023-02-28T04:56:53.374Z,95529.97
2023-02-28T04:59:20.005Z,95552.53
2023-02-28T05:01:49.446Z,95552.00
2023-02-28T05:04:16.563Z,95542.81
2023-02-28T05:06:43.392Z,95549.97
2023-02-28T05:09:12.612Z,95540.06
2023-02-28T05:11:40.556Z,95554.22
2023-02-28T05:14:12.300Z,95521.69
2023-02-28T05:16:38.987Z,95553.78
2023-02-28T05:19:06.068Z,95557.59
2023-02-28T05:21:35.825Z,95548.25
2023-02-28T05:24:05.879Z,95568.25
2023-02-28T05:26:35.991Z,95563.41
2023-02-28T05:29:02.858Z,95546.38
2023-02-28T05:31:29.955Z,95558.38
2023-02-28T05:33:57.063Z,95574.00
2023-02-28T05:36:24.043Z,95507.75
2023-02-28T05:38:53.388Z,95555.13
2023-02-28T05:41:21.074Z,95516.22
2023-02-28T05:43:52.424Z,95577.41
2023-02-28T05:46:19.379Z,95575.13
2023-02-28T05:48:48.943Z,95495.63
2023-02-28T05:51:16.842Z,95507.00
2023-02-28T05:53:44.060Z,95502.50
2023-02-28T05:56:11.130Z,95580.22
2023-02-28T05:58:37.927Z,95557.72
2023-02-28T06:01:23.044Z,95564.66
2023-02-28T06:03:50.024Z,95587.56
2023-02-28T06:06:16.862Z,95576.94
2023-02-28T06:08:45.743Z,95573.41
2023-02-28T06:11:12.696Z,95580.00
2023-02-28T06:13:40.061Z,95526.41
2023-02-28T06:16:06.873Z,95536.88
2023-02-28T06:18:33.801Z,95514.06
2023-02-28T06:21:00.551Z,95537.44
2023-02-28T06:23:27.390Z,95597.47
2023-02-28T06:25:54.356Z,95603.09
2023-02-28T06:28:21.141Z,95527.75
2023-02-28T06:30:48.055Z,95598.72
2023-02-28T06:33:14.780Z,95548.06
2023-02-28T06:35:45.752Z,95565.06
2023-02-28T06:38:12.778Z,95531.44
2023-02-28T06:40:39.520Z,95619.00
2023-02-28T06:43:06.288Z,95592.19
2023-02-28T06:45:33.189Z,95572.97
2023-02-28T06:48:01.217Z,95592.97
2023-02-28T06:50:30.476Z,95593.28
2023-02-28T06:52:57.607Z,95532.66
2023-02-28T06:55:24.434Z,95557.97
2023-02-28T06:57:51.752Z,95624.34
2023-02-28T07:00:18.616Z,95612.34
2023-02-28T07:02:45.672Z,95564.16
2023-02-28T07:05:12.425Z,95621.84
2023-02-28T07:07:41.627Z,95619.81
2023-02-28T07:10:08.912Z,95624.06
2023-02-28T07:12:37.311Z,95604.00
2023-02-28T07:15:05.690Z,95615.59
2023-02-28T07:17:32.430Z,95571.78
2023-02-28T07:19:59.100Z,95572.69
2023-02-28T07:22:26.009Z,95625.53
2023-02-28T07:24:52.902Z,95564.38
2023-02-28T07:27:24.785Z,95583.97
2023-02-28T07:29:51.530Z,95576.94
2023-02-28T07:32:18.475Z,95615.25
2023-02-28T07:34:45.682Z,95619.47
2023-02-28T07:37:12.535Z,95553.13
2023-02-28T07:39:39.419Z,95600.53
2023-02-28T07:42:07.738Z,95624.00
2023-02-28T07:44:34.396Z,95626.63
2023-02-28T07:47:01.108Z,95576.16
2023-02-28T07:49:27.964Z,95591.03
2023-02-28T07:51:54.826Z,95602.47
2023-02-28T07:54:21.630Z,95583.44
2023-02-28T07:56:48.312Z,95605.81
2023-02-28T07:59:15.008Z,95616.03
2023-02-28T08:01:41.702Z,95560.00
2023-02-28T08:04:08.392Z,95609.63
2023-02-28T08:06:35.100Z,95533.00
2023-02-28T08:09:01.857Z,95553.78
2023-02-28T08:11:28.771Z,95568.28
2023-02-28T08:13:56.116Z,95614.47
2023-02-28T08:16:23.420Z,95544.56
2023-02-28T08:18:52.033Z,95575.31
2023-02-28T08:21:18.863Z,95566.69
2023-02-28T08:23:48.860Z,95563.78
2023-02-28T08:26:17.984Z,95555.00
2023-02-28T08:28:45.473Z,95631.69
2023-02-28T08:31:15.464Z,95596.31
2023-02-28T08:33:43.143Z,95575.72
2023-02-28T08:36:10.419Z,95583.72
2023-02-28T08:38:38.341Z,95583.72
2023-02-28T08:41:08.285Z,95623.72
2023-02-28T08:43:35.827Z,95576.34
2023-02-28T08:46:02.576Z,95626.03
2023-02-28T08:48:30.952Z,95624.81
2023-02-28T08:51:06.629Z,95624.25
2023-02-28T08:53:34.091Z,95629.31
2023-02-28T08:56:03.310Z,95582.69
2023-02-28T08:58:30.192Z,95597.69
2023-02-28T09:00:57.164Z,95613.81
2023-02-28T09:03:25.379Z,95574.66
2023-02-28T09:06:00.669Z,95547.09
2023-02-28T09:08:31.368Z,95625.94
2023-02-28T09:11:00.667Z,95570.00
2023-02-28T09:13:28.941Z,95571.00
2023-02-28T09:15:55.685Z,95595.66
2023-02-28T09:18:22.514Z,95576.66
2023-02-28T09:20:49.159Z,95626.34
2023-02-28T09:23:15.950Z,95561.63
2023-02-28T09:25:51.356Z,95610.94
2023-02-28T09:28:18.086Z,95570.75
2023-02-28T09:30:51.158Z,95600.91
2023-02-28T09:33:21.703Z,95564.50
2023-02-28T09:35:51.696Z,95578.78
2023-02-28T09:38:18.788Z,95562.56
2023-02-28T09:40:51.449Z,95599.03
2023-02-28T09:43:21.362Z,95606.97
2023-02-28T09:46:01.985Z,95621.56
2023-02-28T09:48:38.519Z,95605.66
2023-02-28T09:51:22.631Z,95610.50
2023-02-28T09:53:53.377Z,95560.47
2023-02-28T09:56:29.425Z,95608.28
2023-02-28T09:59:02.430Z,95603.03
2023-02-28T10:01:40.353Z,95599.69
2023-02-28T10:04:35.936Z,95593.50
2023-02-28T10:07:08.339Z,95558.03
2023-02-28T10:09:37.265Z,95591.25
2023-02-28T10:12:10.701Z,95530.03
2023-02-28T10:14:40.889Z,95563.22
2023-02-28T10:17:16.275Z,95569.19
2023-02-28T10:20:02.324Z,95565.88
2023-02-28T10:22:41.176Z,95578.44
2023-02-28T10:25:24.410Z,95576.16
2023-02-28T10:27:55.141Z,95544.31
2023-02-28T10:30:21.952Z,95559.25
2023-02-28T10:32:54.648Z,95554.25
2023-02-28T10:35:27.071Z,95498.69
2023-02-28T10:38:01.868Z,95499.81
2023-02-28T10:40:36.598Z,95549.66
2023-02-28T10:43:04.889Z,95542.03
2023-02-28T10:45:35.021Z,95484.41
2023-02-28T10:48:15.063Z,95474.59
2023-02-28T10:50:50.964Z,95523.81
2023-02-28T10:53:26.748Z,95522.34
2023-02-28T10:56:11.456Z,95515.19
2023-02-28T10:58:57.268Z,95515.28
2023-02-28T11:01:26.446Z,95507.44
2023-02-28T11:03:54.050Z,95444.84
2023-02-28T11:06:24.256Z,95488.97
2023-02-28T11:08:56.515Z,95466.84
2023-02-28T11:11:25.876Z,95490.81
2023-02-28T11:14:05.651Z,95431.59
2023-02-28T11:16:38.028Z,95484.94
2023-02-28T11:19:21.777Z,95490.50
2023-02-28T11:22:06.446Z,95471.59
2023-02-28T11:24:40.800Z,95495.72
2023-02-28T11:27:08.423Z,95445.81
2023-02-28T11:29:36.035Z,95422.28
2023-02-28T11:32:04.855Z,95472.56
2023-02-28T11:34:33.302Z,95462.56
2023-02-28T11:37:01.830Z,95460.59
2023-02-28T11:39:29.276Z,95448.69
2023-02-28T11:42:18.016Z,95439.69
2023-02-28T11:45:22.844Z,95478.22
2023-02-28T11:48:20.879Z,95473.25
2023-02-28T11:51:12.102Z,95440.34
2023-02-28T11:54:13.064Z,95484.09
2023-02-28T11:56:49.050Z,95456.03
2023-02-28T11:59:46.851Z,95478.41
2023-02-28T12:02:29.385Z,95476.69
2023-02-28T12:05:32.175Z,95455.53
2023-02-28T12:08:12.008Z,95481.78
2023-02-28T12:10:54.469Z,95404.19
2023-02-28T12:13:42.744Z,95470.41
2023-02-28T12:16:39.902Z,95458.59
2023-02-28T12:19:29.434Z,95411.88
2023-02-28T12:22:16.680Z,95412.13
2023-02-28T12:25:07.758Z,95467.38
2023-02-28T12:27:39.732Z,95390.13
2023-02-28T12:30:17.365Z,95470.09
2023-02-28T12:32:49.177Z,95464.75
2023-02-28T12:35:36.228Z,95453.84
2023-02-28T12:38:28.202Z,95461.94
2023-02-28T12:41:01.304Z,95448.75
2023-02-28T12:43:36.054Z,95410.06
2023-02-28T12:46:18.888Z,95443.81
2023-02-28T12:48:56.542Z,95358.47
2023-02-28T12:51:25.102Z,95367.97
2023-02-28T12:54:26.049Z,95441.06
2023-02-28T12:57:14.523Z,95456.69
2023-02-28T12:59:57.110Z,95418.63
2023-02-28T13:02:41.904Z,95442.84
2023-02-28T13:05:20.835Z,95443.63
2023-02-28T13:08:24.567Z,95434.69
2023-02-28T13:11:10.046Z,95416.69
2023-02-28T13:14:07.759Z,95411.25
2023-02-28T13:17:15.832Z,95412.44
2023-02-28T13:19:57.857Z,95438.72
2023-02-28T13:22:36.569Z,95437.72
2023-02-28T13:25:03.451Z,95386.66
2023-02-28T13:27:41.695Z,95410.25
2023-02-28T13:30:48.811Z,95438.75
2023-02-28T13:33:40.779Z,95439.66
2023-02-28T13:36:10.712Z,95415.28
2023-02-28T13:38:40.317Z,95379.69
2023-02-28T13:41:38.691Z,95424.09
2023-02-28T13:44:27.490Z,95425.94
2023-02-28T13:50:07.203Z,95327.97
2023-02-28T13:53:23.688Z,95419.84
2023-02-28T13:56:35.601Z,95298.59
2023-02-28T14:00:24.889Z,95291.78
2023-02-28T14:03:18.530Z,95417.53
2023-02-28T14:05:45.859Z,95402.34
2023-02-28T14:08:22.007Z,95309.59
2023-02-28T14:10:51.275Z,95373.91
2023-02-28T14:13:48.452Z,95411.28
2023-02-28T14:16:19.077Z,95405.91
2023-02-28T14:19:13.189Z,95345.25
2023-02-28T14:21:52.289Z,95360.56
2023-02-28T14:24:34.454Z,95414.00
2023-02-28T14:27:32.326Z,95359.19
2023-02-28T14:30:36.540Z,95424.34
2023-02-28T14:33:27.722Z,95428.03
2023-02-28T14:36:02.679Z,95437.41
2023-02-28T14:38:58.283Z,95434.31
2023-02-28T14:41:38.499Z,95374.75
2023-02-28T14:44:28.861Z,95354.13
2023-02-28T14:47:06.540Z,95414.63
2023-02-28T14:49:46.607Z,95394.25
2023-02-28T14:52:25.391Z,95392.53
2023-02-28T14:54:58.525Z,95415.19
2023-02-28T14:57:40.082Z,95425.53
2023-02-28T15:00:24.356Z,95411.78
2023-02-28T15:02:55.153Z,95402.34
2023-02-28T15:05:28.509Z,95415.34
2023-02-28T15:08:16.297Z,95419.06
2023-02-28T15:10:56.751Z,95426.09
2023-02-28T15:13:24.718Z,95422.28
2023-02-28T15:16:03.159Z,95404.56
2023-02-28T15:18:33.580Z,95422.75
2023-02-28T15:21:05.701Z,95384.81
2023-02-28T15:23:33.795Z,95419.19
2023-02-28T15:26:01.405Z,95420.47
2023-02-28T15:28:29.525Z,95441.81
2023-02-28T15:31:04.499Z,95400.53
2023-02-28T15:33:33.757Z,95413.66
2023-02-28T15:36:13.750Z,95437.78
2023-02-28T15:38:40.849Z,95363.69
2023-02-28T15:41:26.835Z,95388.66
2023-02-28T15:44:28.067Z,95439.09
2023-02-28T15:47:29.352Z,95395.28
2023-02-28T15:50:04.005Z,95399.38
2023-02-28T15:52:45.118Z,95436.78
2023-02-28T15:55:20.246Z,95441.09
2023-02-28T15:57:51.221Z,95449.81
2023-02-28T16:00:23.534Z,95424.78
2023-02-28T16:02:50.255Z,95461.69
2023-02-28T16:05:35.319Z,95407.00
2023-02-28T16:08:17.322Z,95398.66
2023-02-28T16:10:44.021Z,95475.53
2023-02-28T16:13:15.134Z,95462.06
2023-02-28T16:15:44.283Z,95455.91
2023-02-28T16:18:14.724Z,95465.81
2023-02-28T16:20:41.724Z,95471.91
2023-02-28T16:23:09.249Z,95469.69
2023-02-28T16:25:39.747Z,95492.41
2023-02-28T16:28:21.814Z,95505.53
2023-02-28T16:30:48.621Z,95496.53
2023-02-28T16:33:15.457Z,95485.53
2023-02-28T16:35:42.095Z,95498.34
2023-02-28T16:38:08.743Z,95420.50
2023-02-28T16:40:37.179Z,95450.19
2023-02-28T16:43:09.241Z,95500.94
2023-02-28T16:45:35.956Z,95500.25
2023-02-28T16:48:02.668Z,95444.00
2023-02-28T16:50:31.124Z,95514.91
2023-02-28T16:52:57.769Z,95509.88
2023-02-28T16:55:26.620Z,95480.84
2023-02-28T16:57:56.116Z,95495.25
2023-02-28T17:00:24.098Z,95447.63
2023-02-28T17:02:50.930Z,95499.41
2023-02-28T17:05:19.769Z,95495.63
2023-02-28T17:07:47.568Z,95512.38
2023-02-28T17:10:20.538Z,95502.91
2023-02-28T17:12:47.506Z,95502.72
2023-02-28T17:15:16.198Z,95443.78
2023-02-28T17:17:44.417Z,95425.81
2023-02-28T17:20:15.772Z,95524.50
2023-02-28T17:22:42.452Z,95530.00
2023-02-28T17:25:11.501Z,95519.16
2023-02-28T17:27:38.695Z,95526.09
2023-02-28T17:30:30.412Z,95521.53
2023-02-28T17:32:57.964Z,95476.28
2023-02-28T17:35:25.326Z,95442.22
2023-02-28T17:37:52.590Z,95439.28
2023-02-28T17:40:22.239Z,95525.81
2023-02-28T17:42:50.427Z,95515.56
2023-02-28T17:45:17.309Z,95479.72
2023-02-28T17:47:47.748Z,95417.47
2023-02-28T17:50:18.570Z,95494.63
2023-02-28T17:52:45.460Z,95513.84
2023-02-28T17:55:13.659Z,95499.78
2023-02-28T17:57:42.765Z,95493.34
2023-02-28T18:00:19.806Z,95527.06
2023-02-28T18:02:46.975Z,95428.84
2023-02-28T18:05:13.938Z,95518.13
2023-02-28T18:07:41.599Z,95509.81
2023-02-28T18:10:20.274Z,95449.09
2023-02-28T18:12:49.113Z,95454.94
2023-02-28T18:15:19.074Z,95397.47
2023-02-28T18:17:46.001Z,95488.16
2023-02-28T18:20:13.153Z,95451.06
2023-02-28T18:22:41.297Z,95512.94
2023-02-28T18:25:11.812Z,95413.81
2023-02-28T18:27:39.257Z,95539.16
2023-02-28T18:30:06.569Z,95521.59
2023-02-28T18:32:33.399Z,95510.84
2023-02-28T18:35:00.377Z,95468.25
2023-02-28T18:37:28.052Z,95514.75
2023-02-28T18:39:54.953Z,95519.38
2023-02-28T18:42:21.812Z,95508.84
2023-02-28T18:44:48.800Z,95529.84
2023-02-28T18:47:15.489Z,95504.25
2023-02-28T18:49:42.260Z,95491.88
2023-02-28T18:52:08.886Z,95501.59
2023-02-28T18:54:36.235Z,95542.00
2023-02-28T18:57:02.905Z,95505.03
2023-02-28T18:59:30.164Z,95532.06
2023-02-28T19:01:58.800Z,95512.16
2023-02-28T19:04:27.035Z,95464.72
2023-02-28T19:06:55.464Z,95413.53
2023-02-28T19:09:22.292Z,95489.78
2023-02-28T19:11:49.401Z,95550.25
2023-02-28T19:14:17.477Z,95475.19
2023-02-28T19:16:45.661Z,95547.59
2023-02-28T19:19:14.220Z,95534.63
2023-02-28T19:21:44.737Z,95447.41
2023-02-28T19:24:12.407Z,95425.13
2023-02-28T19:26:39.415Z,95482.47
2023-02-28T19:29:06.337Z,95506.94
2023-02-28T19:31:33.735Z,95532.84
2023-02-28T19:34:01.388Z,95494.38
2023-02-28T19:36:28.555Z,95456.28
2023-02-28T19:38:55.379Z,95513.75
2023-02-28T19:41:22.103Z,95520.69
2023-02-28T19:43:49.113Z,95485.69
2023-02-28T19:46:16.260Z,95545.88
2023-02-28T19:48:44.912Z,95486.75
2023-02-28T19:51:13.495Z,95528.31
2023-02-28T19:53:41.989Z,95551.56
2023-02-28T19:56:09.781Z,95549.56
2023-02-28T19:58:36.964Z,95551.22
2023-02-28T20:01:17.519Z,95539.22
2023-02-28T20:03:48.046Z,95538.94
2023-02-28T20:06:15.242Z,95529.38
2023-02-28T20:08:42.395Z,95478.16
2023-02-28T20:11:15.775Z,95519.88
2023-02-28T20:13:42.605Z,95525.63
2023-02-28T20:16:10.947Z,95540.88
2023-02-28T20:18:39.590Z,95507.88
2023-02-28T20:21:09.488Z,95526.16
2023-02-28T20:23:38.277Z,95488.75
2023-02-28T20:26:05.202Z,95514.38
2023-02-28T20:28:32.109Z,95487.22
2023-02-28T20:30:58.864Z,95534.06
2023-02-28T20:33:25.653Z,95489.16
2023-02-28T20:35:59.621Z,95523.31
2023-02-28T20:38:26.458Z,95496.28
2023-02-28T20:41:00.151Z,95541.50
2023-02-28T20:43:27.536Z,95546.97
2023-02-28T20:45:57.325Z,95528.94
2023-02-28T20:48:28.130Z,95533.16
2023-02-28T20:50:56.443Z,95496.63
2023-02-28T20:53:25.010Z,95507.97
2023-02-28T20:56:07.667Z,95492.16
2023-02-28T20:58:37.133Z,95542.19
2023-02-28T21:01:18.406Z,95477.03
2023-02-28T21:03:50.550Z,95552.81
2023-02-28T21:06:19.313Z,95479.13
2023-02-28T21:08:46.332Z,95481.06
2023-02-28T21:11:16.220Z,95555.25
2023-02-28T21:13:44.612Z,95559.13
2023-02-28T21:16:13.919Z,95536.63
2023-02-28T21:18:41.176Z,95476.63
2023-02-28T21:21:11.487Z,95556.91
2023-02-28T21:23:38.735Z,95511.22
2023-02-28T21:26:08.640Z,95528.44
2023-02-28T21:28:36.004Z,95478.91
2023-02-28T21:31:05.026Z,95545.72
2023-02-28T21:33:32.328Z,95520.66
2023-02-28T21:36:03.166Z,95490.31
2023-02-28T21:38:30.346Z,95547.50
2023-02-28T21:40:57.037Z,95505.94
2023-02-28T21:43:23.769Z,95482.28
2023-02-28T21:45:50.463Z,95537.25
2023-02-28T21:48:17.584Z,95534.56
2023-02-28T21:50:54.388Z,95532.59
2023-02-28T21:53:20.984Z,95520.59
2023-02-28T21:55:47.662Z,95513.28
2023-02-28T21:58:14.336Z,95523.63
2023-02-28T22:00:41.842Z,95499.31
2023-02-28T22:03:08.570Z,95493.97
2023-02-28T22:05:35.480Z,95546.47
2023-02-28T22:08:05.273Z,95546.94
2023-02-28T22:10:34.364Z,95555.41
2023-02-28T22:13:03.637Z,95546.53
2023-02-28T22:15:31.720Z,95491.63
2023-02-28T22:17:59.065Z,95543.88
2023-02-28T22:20:25.733Z,95518.41
2023-02-28T22:22:52.432Z,95511.25
2023-02-28T22:25:19.411Z,95452.94
2023-02-28T22:27:46.129Z,95520.69
2023-02-28T22:30:13.138Z,95515.56
2023-02-28T22:32:39.788Z,95471.66
2023-02-28T22:35:07.227Z,95512.25
2023-02-28T22:37:34.327Z,95493.75
2023-02-28T22:40:01.099Z,95492.28
2023-02-28T22:42:27.776Z,95552.25
2023-02-28T22:44:54.408Z,95546.47
2023-02-28T22:47:22.399Z,95465.84
2023-02-28T22:49:49.090Z,95442.22
2023-02-28T22:52:15.780Z,95530.34
2023-02-28T22:54:42.455Z,95550.78
2023-02-28T22:57:09.081Z,95496.09
2023-02-28T22:59:37.993Z,95561.91
2023-02-28T23:02:04.659Z,95498.19
2023-02-28T23:04:31.369Z,95521.13
2023-02-28T23:06:58.673Z,95529.09
2023-02-28T23:09:25.336Z,95530.56
2023-02-28T23:11:52.295Z,95530.56
2023-02-28T23:14:20.451Z,95504.94
2023-02-28T23:16:49.846Z,95523.34
2023-02-28T23:19:19.931Z,95512.59
2023-02-28T23:21:46.889Z,95499.94
2023-02-28T23:24:15.959Z,95476.22
2023-02-28T23:26:46.453Z,95509.13
2023-02-28T23:29:14.878Z,95513.69
2023-02-28T23:31:41.952Z,95502.25
2023-02-28T23:34:09.597Z,95476.22
2023-02-28T23:36:38.276Z,95414.53
2023-02-28T23:39:06.319Z,95432.19
2023-02-28T23:41:33.212Z,95465.53
2023-02-28T23:43:59.803Z,95488.88
2023-02-28T23:46:27.173Z,95469.22
2023-02-28T23:48:53.789Z,95418.34
2023-02-28T23:51:21.874Z,95478.41
2023-02-28T23:53:51.491Z,95452.16
2023-02-28T23:56:21.311Z,95483.03
2023-02-28T23:58:48.396Z,95418.13
